< < Back
Terminal Aerodrome Forecast


Current Version              Previous Versions:   1  2  3  4  5  6  7  8  9  

Terminal Aerodrome Forecast

408
FTUS42 KFFC 261126
TAFMCN
TAF
KMCN 261126Z 2612/2712 29007KT P6SM FEW035 BKN070
     FM261400 28010KT P6SM SCT080
     FM262200 25006KT P6SM SCT250=

Latest METAR

287
SAUS80 KWBC 270800 RRB
MTRMCN
METAR KMCN 270753Z AUTO 28006KT 10SM CLR 07/01 A3013 RMK AO2 SLP200
T00720006 TSNO


USA.gov is the U.S. government's official web portal to all federal, state and local government web resources and services.